sensor_id;sensor_type;location;lat;lon;timestamp;temperature;humidity
8422;DHT22;4248;48.196;10.924;2023-06-10T00:01:24;15.70;29.20
8422;DHT22;4248;48.196;10.924;2023-06-10T00:03:51;15.70;29.30
8422;DHT22;4248;48.196;10.924;2023-06-10T00:06:17;15.70;30.10
8422;DHT22;4248;48.196;10.924;2023-06-10T00:08:43;15.00;29.60
8422;DHT22;4248;48.196;10.924;2023-06-10T00:11:09;15.70;30.00
8422;DHT22;4248;48.196;10.924;2023-06-10T00:13:36;15.70;30.20
8422;DHT22;4248;48.196;10.924;2023-06-10T00:16:02;15.70;30.30
8422;DHT22;4248;48.196;10.924;2023-06-10T00:18:28;15.70;31.10
8422;DHT22;4248;48.196;10.924;2023-06-10T00:20:57;15.70;31.50
8422;DHT22;4248;48.196;10.924;2023-06-10T00:23:22;15.60;31.50
8422;DHT22;4248;48.196;10.924;2023-06-10T00:25:50;15.60;32.20
8422;DHT22;4248;48.196;10.924;2023-06-10T00:28:16;15.70;32.40
8422;DHT22;4248;48.196;10.924;2023-06-10T00:30:41;15.60;32.90
8422;DHT22;4248;48.196;10.924;2023-06-10T00:33:07;15.60;33.20
8422;DHT22;4248;48.196;10.924;2023-06-10T00:35:33;15.60;34.10
8422;DHT22;4248;48.196;10.924;2023-06-10T00:37:58;15.50;34.10
8422;DHT22;4248;48.196;10.924;2023-06-10T00:40:24;15.50;34.10
8422;DHT22;4248;48.196;10.924;2023-06-10T00:42:49;15.50;34.00
8422;DHT22;4248;48.196;10.924;2023-06-10T00:45:15;15.50;33.90
8422;DHT22;4248;48.196;10.924;2023-06-10T00:47:41;15.50;33.90
8422;DHT22;4248;48.196;10.924;2023-06-10T00:50:07;15.30;33.80
8422;DHT22;4248;48.196;10.924;2023-06-10T00:52:33;15.10;33.80
8422;DHT22;4248;48.196;10.924;2023-06-10T00:55:00;15.00;34.10
8422;DHT22;4248;48.196;10.924;2023-06-10T00:57:26;14.90;34.30
8422;DHT22;4248;48.196;10.924;2023-06-10T00:59:53;14.70;34.40
8422;DHT22;4248;48.196;10.924;2023-06-10T01:02:19;14.60;34.40
8422;DHT22;4248;48.196;10.924;2023-06-10T01:04:45;14.50;34.40
8422;DHT22;4248;48.196;10.924;2023-06-10T01:07:31;14.50;34.30
8422;DHT22;4248;48.196;10.924;2023-06-10T01:10:07;14.40;34.30
8422;DHT22;4248;48.196;10.924;2023-06-10T01:13:01;14.40;34.00
8422;DHT22;4248;48.196;10.924;2023-06-10T01:15:34;14.50;34.80
8422;DHT22;4248;48.196;10.924;2023-06-10T01:18:04;14.60;34.70
8422;DHT22;4248;48.196;10.924;2023-06-10T01:20:35;14.70;35.30
8422;DHT22;4248;48.196;10.924;2023-06-10T01:23:03;14.80;35.00
8422;DHT22;4248;48.196;10.924;2023-06-10T01:25:29;14.80;35.20
8422;DHT22;4248;48.196;10.924;2023-06-10T01:28:21;14.90;35.20
8422;DHT22;4248;48.196;10.924;2023-06-10T01:31:06;14.90;35.40
8422;DHT22;4248;48.196;10.924;2023-06-10T01:33:36;14.90;35.40
8422;DHT22;4248;48.196;10.924;2023-06-10T01:36:03;14.90;35.50
8422;DHT22;4248;48.196;10.924;2023-06-10T01:38:33;14.90;35.50
8422;DHT22;4248;48.196;10.924;2023-06-10T01:41:01;15.00;35.80
8422;DHT22;4248;48.196;10.924;2023-06-10T01:43:27;14.90;35.70
8422;DHT22;4248;48.196;10.924;2023-06-10T01:45:52;15.00;36.10
8422;DHT22;4248;48.196;10.924;2023-06-10T01:48:18;14.90;36.10
8422;DHT22;4248;48.196;10.924;2023-06-10T01:50:44;14.90;36.00
8422;DHT22;4248;48.196;10.924;2023-06-10T01:53:09;14.90;35.30
8422;DHT22;4248;48.196;10.924;2023-06-10T01:55:35;14.90;36.20
8422;DHT22;4248;48.196;10.924;2023-06-10T01:58:01;14.80;36.10
8422;DHT22;4248;48.196;10.924;2023-06-10T02:00:26;14.80;36.20
8422;DHT22;4248;48.196;10.924;2023-06-10T02:02:52;14.60;35.60
8422;DHT22;4248;48.196;10.924;2023-06-10T02:05:19;14.50;36.60
8422;DHT22;4248;48.196;10.924;2023-06-10T02:07:44;14.50;36.60
8422;DHT22;4248;48.196;10.924;2023-06-10T02:10:10;14.40;36.60
8422;DHT22;4248;48.196;10.924;2023-06-10T02:12:36;14.20;35.90
8422;DHT22;4248;48.196;10.924;2023-06-10T02:15:02;14.20;36.80
8422;DHT22;4248;48.196;10.924;2023-06-10T02:17:27;14.10;36.80
8422;DHT22;4248;48.196;10.924;2023-06-10T02:19:53;13.90;36.90
8422;DHT22;4248;48.196;10.924;2023-06-10T02:22:23;13.80;37.00
8422;DHT22;4248;48.196;10.924;2023-06-10T02:24:49;13.70;37.00
8422;DHT22;4248;48.196;10.924;2023-06-10T02:27:15;13.70;37.20
8422;DHT22;4248;48.196;10.924;2023-06-10T02:29:41;13.60;37.20
8422;DHT22;4248;48.196;10.924;2023-06-10T02:32:09;13.60;36.50
8422;DHT22;4248;48.196;10.924;2023-06-10T02:34:35;13.60;37.60
8422;DHT22;4248;48.196;10.924;2023-06-10T02:37:02;13.50;38.70
8422;DHT22;4248;48.196;10.924;2023-06-10T02:39:28;13.50;37.60
8422;DHT22;4248;48.196;10.924;2023-06-10T02:41:53;13.40;36.80
8422;DHT22;4248;48.196;10.924;2023-06-10T02:44:19;13.40;37.70
8422;DHT22;4248;48.196;10.924;2023-06-10T02:46:45;13.40;37.80
8422;DHT22;4248;48.196;10.924;2023-06-10T02:49:12;13.30;37.80
8422;DHT22;4248;48.196;10.924;2023-06-10T02:51:38;13.30;38.00
8422;DHT22;4248;48.196;10.924;2023-06-10T02:54:04;13.20;37.10
8422;DHT22;4248;48.196;10.924;2023-06-10T02:56:30;13.10;38.40
8422;DHT22;4248;48.196;10.924;2023-06-10T02:58:57;13.10;38.40
8422;DHT22;4248;48.196;10.924;2023-06-10T03:01:23;13.00;38.30
8422;DHT22;4248;48.196;10.924;2023-06-10T03:03:48;13.00;37.70
8422;DHT22;4248;48.196;10.924;2023-06-10T03:06:15;13.00;38.60
8422;DHT22;4248;48.196;10.924;2023-06-10T03:08:41;13.00;38.50
8422;DHT22;4248;48.196;10.924;2023-06-10T03:11:08;13.00;38.60
8422;DHT22;4248;48.196;10.924;2023-06-10T03:13:34;13.00;37.80
8422;DHT22;4248;48.196;10.924;2023-06-10T03:15:59;13.00;38.60
8422;DHT22;4248;48.196;10.924;2023-06-10T03:18:26;13.00;38.50
8422;DHT22;4248;48.196;10.924;2023-06-10T03:20:52;13.10;38.40
8422;DHT22;4248;48.196;10.924;2023-06-10T03:23:18;13.10;37.70
8422;DHT22;4248;48.196;10.924;2023-06-10T03:25:44;13.10;38.40
8422;DHT22;4248;48.196;10.924;2023-06-10T03:28:11;13.10;38.40
8422;DHT22;4248;48.196;10.924;2023-06-10T03:30:36;13.10;38.50
8422;DHT22;4248;48.196;10.924;2023-06-10T03:33:02;13.10;37.80
8422;DHT22;4248;48.196;10.924;2023-06-10T03:35:28;13.20;38.70
8422;DHT22;4248;48.196;10.924;2023-06-10T03:37:53;13.30;38.70
8422;DHT22;4248;48.196;10.924;2023-06-10T03:40:19;13.30;38.30
8422;DHT22;4248;48.196;10.924;2023-06-10T03:42:45;13.40;37.40
8422;DHT22;4248;48.196;10.924;2023-06-10T03:45:11;13.40;38.30
8422;DHT22;4248;48.196;10.924;2023-06-10T03:47:37;13.50;38.20
8422;DHT22;4248;48.196;10.924;2023-06-10T03:50:04;13.50;38.10
8422;DHT22;4248;48.196;10.924;2023-06-10T03:52:30;13.60;38.00
8422;DHT22;4248;48.196;10.924;2023-06-10T03:54:56;13.70;38.00
8422;DHT22;4248;48.196;10.924;2023-06-10T03:57:22;13.70;37.80
8422;DHT22;4248;48.196;10.924;2023-06-10T03:59:47;13.80;37.70
8422;DHT22;4248;48.196;10.924;2023-06-10T04:02:13;14.00;36.60
8422;DHT22;4248;48.196;10.924;2023-06-10T04:04:39;14.00;37.60
8422;DHT22;4248;48.196;10.924;2023-06-10T04:07:05;14.00;37.20
8422;DHT22;4248;48.196;10.924;2023-06-10T04:09:30;14.10;37.10
8422;DHT22;4248;48.196;10.924;2023-06-10T04:11:57;14.30;36.10
8422;DHT22;4248;48.196;10.924;2023-06-10T04:14:22;14.30;37.10
8422;DHT22;4248;48.196;10.924;2023-06-10T04:16:49;14.40;37.00
8422;DHT22;4248;48.196;10.924;2023-06-10T04:19:15;14.50;36.90
8422;DHT22;4248;48.196;10.924;2023-06-10T04:21:42;14.70;36.70
8422;DHT22;4248;48.196;10.924;2023-06-10T04:24:09;14.90;35.50
8422;DHT22;4248;48.196;10.924;2023-06-10T04:26:35;15.10;36.40
8422;DHT22;4248;48.196;10.924;2023-06-10T04:29:01;15.20;36.40
8422;DHT22;4248;48.196;10.924;2023-06-10T04:31:27;15.30;36.60
8422;DHT22;4248;48.196;10.924;2023-06-10T04:33:53;15.50;35.80
8422;DHT22;4248;48.196;10.924;2023-06-10T04:36:19;15.60;35.60
8422;DHT22;4248;48.196;10.924;2023-06-10T04:38:44;15.80;36.70
8422;DHT22;4248;48.196;10.924;2023-06-10T04:41:11;15.90;36.50
8422;DHT22;4248;48.196;10.924;2023-06-10T04:43:36;16.90;34.10
8422;DHT22;4248;48.196;10.924;2023-06-10T04:46:02;18.00;33.90
8422;DHT22;4248;48.196;10.924;2023-06-10T04:48:28;19.20;32.00
8422;DHT22;4248;48.196;10.924;2023-06-10T04:50:53;20.10;30.00
8422;DHT22;4248;48.196;10.924;2023-06-10T04:53:19;21.10;27.10
8422;DHT22;4248;48.196;10.924;2023-06-10T04:55:46;21.50;27.60
8422;DHT22;4248;48.196;10.924;2023-06-10T04:58:12;21.90;26.60
8422;DHT22;4248;48.196;10.924;2023-06-10T05:00:37;22.80;24.40
8422;DHT22;4248;48.196;10.924;2023-06-10T05:03:03;23.70;21.20
8422;DHT22;4248;48.196;10.924;2023-06-10T05:05:28;23.80;22.30
8422;DHT22;4248;48.196;10.924;2023-06-10T05:07:54;24.00;21.80
8422;DHT22;4248;48.196;10.924;2023-06-10T05:10:20;24.20;20.70
8422;DHT22;4248;48.196;10.924;2023-06-10T05:12:46;24.40;18.30
8422;DHT22;4248;48.196;10.924;2023-06-10T05:15:12;24.50;19.00
8422;DHT22;4248;48.196;10.924;2023-06-10T05:17:37;25.20;17.80
8422;DHT22;4248;48.196;10.924;2023-06-10T05:20:03;25.70;16.10
8422;DHT22;4248;48.196;10.924;2023-06-10T05:22:29;26.30;13.50
8422;DHT22;4248;48.196;10.924;2023-06-10T05:24:55;26.40;13.90
8422;DHT22;4248;48.196;10.924;2023-06-10T05:27:20;26.90;12.20
8422;DHT22;4248;48.196;10.924;2023-06-10T05:29:47;26.90;12.20
8422;DHT22;4248;48.196;10.924;2023-06-10T05:32:13;26.60;11.70
8422;DHT22;4248;48.196;10.924;2023-06-10T05:34:38;26.70;12.40
8422;DHT22;4248;48.196;10.924;2023-06-10T05:37:04;26.90;12.40
8422;DHT22;4248;48.196;10.924;2023-06-10T05:39:30;27.00;10.50
8422;DHT22;4248;48.196;10.924;2023-06-10T05:41:57;28.00;7.90
8422;DHT22;4248;48.196;10.924;2023-06-10T05:44:24;28.10;8.40
8422;DHT22;4248;48.196;10.924;2023-06-10T05:46:50;28.20;8.40
8422;DHT22;4248;48.196;10.924;2023-06-10T05:49:16;28.60;7.50
8422;DHT22;4248;48.196;10.924;2023-06-10T05:51:42;28.50;6.70
8422;DHT22;4248;48.196;10.924;2023-06-10T05:54:08;27.40;9.40
8422;DHT22;4248;48.196;10.924;2023-06-10T05:56:33;25.80;13.30
8422;DHT22;4248;48.196;10.924;2023-06-10T05:59:00;24.80;15.70
8422;DHT22;4248;48.196;10.924;2023-06-10T06:01:25;23.70;18.80
8422;DHT22;4248;48.196;10.924;2023-06-10T06:03:51;22.90;19.70
8422;DHT22;4248;48.196;10.924;2023-06-10T06:06:16;22.30;21.50
8422;DHT22;4248;48.196;10.924;2023-06-10T06:08:42;22.10;21.80
8422;DHT22;4248;48.196;10.924;2023-06-10T06:11:08;21.80;21.70
8422;DHT22;4248;48.196;10.924;2023-06-10T06:13:33;21.40;21.20
8422;DHT22;4248;48.196;10.924;2023-06-10T06:15:59;21.40;21.90
8422;DHT22;4248;48.196;10.924;2023-06-10T06:18:25;21.30;21.60
8422;DHT22;4248;48.196;10.924;2023-06-10T06:20:50;21.40;21.50
8422;DHT22;4248;48.196;10.924;2023-06-10T06:23:16;21.30;20.90
8422;DHT22;4248;48.196;10.924;2023-06-10T06:25:42;21.50;21.30
8422;DHT22;4248;48.196;10.924;2023-06-10T06:28:09;21.70;20.90
8422;DHT22;4248;48.196;10.924;2023-06-10T06:30:35;21.70;20.90
8422;DHT22;4248;48.196;10.924;2023-06-10T06:33:01;21.70;20.90
8422;DHT22;4248;48.196;10.924;2023-06-10T06:35:27;21.70;21.20
8422;DHT22;4248;48.196;10.924;2023-06-10T06:37:52;21.50;20.90
8422;DHT22;4248;48.196;10.924;2023-06-10T06:40:18;21.40;22.10
8422;DHT22;4248;48.196;10.924;2023-06-10T06:42:44;21.60;21.50
8422;DHT22;4248;48.196;10.924;2023-06-10T06:45:10;21.70;22.10
8422;DHT22;4248;48.196;10.924;2023-06-10T06:47:36;21.90;21.80
8422;DHT22;4248;48.196;10.924;2023-06-10T06:50:01;21.80;22.10
8422;DHT22;4248;48.196;10.924;2023-06-10T06:52:28;22.00;21.30
8422;DHT22;4248;48.196;10.924;2023-06-10T06:54:54;22.10;22.00
8422;DHT22;4248;48.196;10.924;2023-06-10T06:57:20;22.30;21.60
8422;DHT22;4248;48.196;10.924;2023-06-10T06:59:45;22.60;21.10
8422;DHT22;4248;48.196;10.924;2023-06-10T07:02:11;22.70;20.90
8422;DHT22;4248;48.196;10.924;2023-06-10T07:04:37;22.40;21.20
8422;DHT22;4248;48.196;10.924;2023-06-10T07:07:04;22.20;21.70
8422;DHT22;4248;48.196;10.924;2023-06-10T07:09:29;22.10;22.10
8422;DHT22;4248;48.196;10.924;2023-06-10T07:11:55;22.40;21.10
8422;DHT22;4248;48.196;10.924;2023-06-10T07:14:21;22.40;21.90
8422;DHT22;4248;48.196;10.924;2023-06-10T07:16:46;22.60;21.50
8422;DHT22;4248;48.196;10.924;2023-06-10T07:19:13;22.70;21.30
8422;DHT22;4248;48.196;10.924;2023-06-10T07:21:39;22.80;21.10
8422;DHT22;4248;48.196;10.924;2023-06-10T07:24:05;22.90;20.00
8422;DHT22;4248;48.196;10.924;2023-06-10T07:26:31;22.90;20.70
8422;DHT22;4248;48.196;10.924;2023-06-10T07:28:56;22.70;21.10
8422;DHT22;4248;48.196;10.924;2023-06-10T07:31:23;22.40;21.50
8422;DHT22;4248;48.196;10.924;2023-06-10T07:33:49;22.50;20.70
8422;DHT22;4248;48.196;10.924;2023-06-10T07:36:15;22.40;21.50
8422;DHT22;4248;48.196;10.924;2023-06-10T07:38:41;22.40;21.90
8422;DHT22;4248;48.196;10.924;2023-06-10T07:41:08;22.20;22.30
8422;DHT22;4248;48.196;10.924;2023-06-10T07:43:33;22.40;21.10
8422;DHT22;4248;48.196;10.924;2023-06-10T07:45:59;22.50;21.80
8422;DHT22;4248;48.196;10.924;2023-06-10T07:48:25;22.70;21.40
8422;DHT22;4248;48.196;10.924;2023-06-10T07:50:52;22.80;21.30
8422;DHT22;4248;48.196;10.924;2023-06-10T07:53:17;23.10;19.80
8422;DHT22;4248;48.196;10.924;2023-06-10T07:55:43;23.20;20.40
8422;DHT22;4248;48.196;10.924;2023-06-10T07:58:09;23.10;20.50
8422;DHT22;4248;48.196;10.924;2023-06-10T08:00:35;23.20;20.10
8422;DHT22;4248;48.196;10.924;2023-06-10T08:03:01;23.40;18.90
8422;DHT22;4248;48.196;10.924;2023-06-10T08:05:26;23.40;19.80
8422;DHT22;4248;48.196;10.924;2023-06-10T08:07:52;23.50;19.60
8422;DHT22;4248;48.196;10.924;2023-06-10T08:10:18;23.50;19.70
8422;DHT22;4248;48.196;10.924;2023-06-10T08:12:44;23.70;18.60
8422;DHT22;4248;48.196;10.924;2023-06-10T08:15:10;23.60;19.30
8422;DHT22;4248;48.196;10.924;2023-06-10T08:17:37;23.80;18.80
8422;DHT22;4248;48.196;10.924;2023-06-10T08:20:03;24.00;18.50
8422;DHT22;4248;48.196;10.924;2023-06-10T08:22:29;24.10;17.20
8422;DHT22;4248;48.196;10.924;2023-06-10T08:24:54;24.10;17.90
8422;DHT22;4248;48.196;10.924;2023-06-10T08:27:21;24.10;17.80
8422;DHT22;4248;48.196;10.924;2023-06-10T08:29:47;23.90;17.80
8422;DHT22;4248;48.196;10.924;2023-06-10T08:32:13;23.60;18.30
8422;DHT22;4248;48.196;10.924;2023-06-10T08:34:38;23.40;18.30
8422;DHT22;4248;48.196;10.924;2023-06-10T08:37:04;23.20;18.90
8422;DHT22;4248;48.196;10.924;2023-06-10T08:39:30;23.20;18.50
8422;DHT22;4248;48.196;10.924;2023-06-10T08:42:23;23.50;17.60
8422;DHT22;4248;48.196;10.924;2023-06-10T08:44:54;23.50;18.20
8422;DHT22;4248;48.196;10.924;2023-06-10T08:47:24;23.60;17.90
8422;DHT22;4248;48.196;10.924;2023-06-10T08:49:51;23.80;17.30
8422;DHT22;4248;48.196;10.924;2023-06-10T08:52:20;23.60;16.60
8422;DHT22;4248;48.196;10.924;2023-06-10T08:54:52;23.60;17.60
8422;DHT22;4248;48.196;10.924;2023-06-10T08:57:20;23.80;17.30
8422;DHT22;4248;48.196;10.924;2023-06-10T08:59:47;23.80;17.10
8422;DHT22;4248;48.196;10.924;2023-06-10T09:02:14;24.00;15.90
8422;DHT22;4248;48.196;10.924;2023-06-10T09:04:43;23.90;16.60
8422;DHT22;4248;48.196;10.924;2023-06-10T09:07:10;24.00;16.60
8422;DHT22;4248;48.196;10.924;2023-06-10T09:09:36;24.20;16.30
8422;DHT22;4248;48.196;10.924;2023-06-10T09:12:03;24.40;15.20
8422;DHT22;4248;48.196;10.924;2023-06-10T09:14:29;24.40;15.90
8422;DHT22;4248;48.196;10.924;2023-06-10T09:16:55;24.20;15.80
8422;DHT22;4248;48.196;10.924;2023-06-10T09:19:24;24.20;16.80
8422;DHT22;4248;48.196;10.924;2023-06-10T09:21:50;24.30;14.90
8422;DHT22;4248;48.196;10.924;2023-06-10T09:24:16;24.20;15.70
8422;DHT22;4248;48.196;10.924;2023-06-10T09:26:43;24.30;15.30
8422;DHT22;4248;48.196;10.924;2023-06-10T09:29:09;24.40;14.80
8422;DHT22;4248;48.196;10.924;2023-06-10T09:31:38;24.50;14.50
8422;DHT22;4248;48.196;10.924;2023-06-10T09:34:15;24.60;13.70
8422;DHT22;4248;48.196;10.924;2023-06-10T09:36:42;24.70;14.70
8422;DHT22;4248;48.196;10.924;2023-06-10T09:39:18;24.80;14.50
8422;DHT22;4248;48.196;10.924;2023-06-10T09:41:45;24.80;14.20
8422;DHT22;4248;48.196;10.924;2023-06-10T09:44:16;24.90;14.00
8422;DHT22;4248;48.196;10.924;2023-06-10T09:46:42;25.00;13.60
8422;DHT22;4248;48.196;10.924;2023-06-10T09:49:10;25.20;13.30
8422;DHT22;4248;48.196;10.924;2023-06-10T09:51:36;25.40;12.90
8422;DHT22;4248;48.196;10.924;2023-06-10T09:54:05;25.50;11.50
8422;DHT22;4248;48.196;10.924;2023-06-10T09:56:36;25.10;11.20
8422;DHT22;4248;48.196;10.924;2023-06-10T09:59:04;25.00;11.00
8422;DHT22;4248;48.196;10.924;2023-06-10T10:01:32;25.00;11.50
8422;DHT22;4248;48.196;10.924;2023-06-10T10:03:59;25.10;11.70
8422;DHT22;4248;48.196;10.924;2023-06-10T10:06:25;25.40;11.30
8422;DHT22;4248;48.196;10.924;2023-06-10T10:08:51;25.50;10.70
8422;DHT22;4248;48.196;10.924;2023-06-10T10:11:19;25.50;10.70
8422;DHT22;4248;48.196;10.924;2023-06-10T10:13:48;25.30;10.80
8422;DHT22;4248;48.196;10.924;2023-06-10T10:16:37;25.10;10.90
8422;DHT22;4248;48.196;10.924;2023-06-10T10:19:18;24.80;11.30
8422;DHT22;4248;48.196;10.924;2023-06-10T10:22:01;25.20;10.80
8422;DHT22;4248;48.196;10.924;2023-06-10T10:24:56;24.90;11.30
8422;DHT22;4248;48.196;10.924;2023-06-10T10:27:36;24.90;11.80
8422;DHT22;4248;48.196;10.924;2023-06-10T10:30:06;25.00;11.60
8422;DHT22;4248;48.196;10.924;2023-06-10T10:32:46;25.20;12.20
8422;DHT22;4248;48.196;10.924;2023-06-10T10:35:21;25.00;11.30
8422;DHT22;4248;48.196;10.924;2023-06-10T10:37:52;24.70;11.70
8422;DHT22;4248;48.196;10.924;2023-06-10T10:40:20;24.70;11.70
8422;DHT22;4248;48.196;10.924;2023-06-10T10:42:50;25.00;11.50
8422;DHT22;4248;48.196;10.924;2023-06-10T10:45:16;24.80;11.10
8422;DHT22;4248;48.196;10.924;2023-06-10T10:47:48;24.70;11.00
8422;DHT22;4248;48.196;10.924;2023-06-10T10:50:19;24.70;10.70
8422;DHT22;4248;48.196;10.924;2023-06-10T10:52:56;25.00;10.20
8422;DHT22;4248;48.196;10.924;2023-06-10T10:55:24;25.40;9.10
8422;DHT22;4248;48.196;10.924;2023-06-10T10:58:13;25.70;8.80
8422;DHT22;4248;48.196;10.924;2023-06-10T11:00:45;26.20;7.30
8422;DHT22;4248;48.196;10.924;2023-06-10T11:03:15;27.00;6.10
8422;DHT22;4248;48.196;10.924;2023-06-10T11:05:45;27.40;5.10
8422;DHT22;4248;48.196;10.924;2023-06-10T11:08:59;27.50;4.80
8422;DHT22;4248;48.196;10.924;2023-06-10T11:11:00;27.50;4.80
8422;DHT22;4248;48.196;10.924;2023-06-10T11:13:27;27.50;4.80
8422;DHT22;4248;48.196;10.924;2023-06-10T11:15:57;27.40;4.70
8422;DHT22;4248;48.196;10.924;2023-06-10T11:18:24;27.10;4.60
8422;DHT22;4248;48.196;10.924;2023-06-10T11:25:50;26.70;4.40
8422;DHT22;4248;48.196;10.924;2023-06-10T11:28:19;26.80;4.40
8422;DHT22;4248;48.196;10.924;2023-06-10T11:30:45;26.60;5.10
8422;DHT22;4248;48.196;10.924;2023-06-10T11:33:16;26.00;5.70
8422;DHT22;4248;48.196;10.924;2023-06-10T11:35:43;25.90;5.80
8422;DHT22;4248;48.196;10.924;2023-06-10T11:38:09;26.00;6.20
8422;DHT22;4248;48.196;10.924;2023-06-10T11:40:36;26.20;6.30
8422;DHT22;4248;48.196;10.924;2023-06-10T11:43:04;26.70;5.90
8422;DHT22;4248;48.196;10.924;2023-06-10T11:45:29;26.80;5.80
8422;DHT22;4248;48.196;10.924;2023-06-10T11:47:58;27.00;5.80
8422;DHT22;4248;48.196;10.924;2023-06-10T11:50:29;26.80;5.90
8422;DHT22;4248;48.196;10.924;2023-06-10T11:52:55;26.50;6.60
8422;DHT22;4248;48.196;10.924;2023-06-10T11:55:21;26.30;7.00
8422;DHT22;4248;48.196;10.924;2023-06-10T11:57:47;26.20;7.20
8422;DHT22;4248;48.196;10.924;2023-06-10T12:00:15;26.40;6.90
8422;DHT22;4248;48.196;10.924;2023-06-10T12:02:41;26.70;6.30
8422;DHT22;4248;48.196;10.924;2023-06-10T12:05:12;26.90;6.20
8422;DHT22;4248;48.196;10.924;2023-06-10T12:07:38;27.10;6.20
8422;DHT22;4248;48.196;10.924;2023-06-10T12:10:04;27.40;5.60
8422;DHT22;4248;48.196;10.924;2023-06-10T12:12:30;27.50;4.80
8422;DHT22;4248;48.196;10.924;2023-06-10T12:14:57;27.70;4.90
8422;DHT22;4248;48.196;10.924;2023-06-10T12:17:43;27.60;4.90
8422;DHT22;4248;48.196;10.924;2023-06-10T12:20:27;26.90;5.60
8422;DHT22;4248;48.196;10.924;2023-06-10T12:22:54;26.70;5.80
8422;DHT22;4248;48.196;10.924;2023-06-10T12:25:28;26.60;6.40
8422;DHT22;4248;48.196;10.924;2023-06-10T12:27:55;26.50;6.80
8422;DHT22;4248;48.196;10.924;2023-06-10T12:30:25;26.40;7.10
8422;DHT22;4248;48.196;10.924;2023-06-10T12:32:52;26.40;7.30
8422;DHT22;4248;48.196;10.924;2023-06-10T12:35:26;26.50;7.00
8422;DHT22;4248;48.196;10.924;2023-06-10T12:38:01;26.70;6.80
8422;DHT22;4248;48.196;10.924;2023-06-10T12:40:31;26.70;6.20
8422;DHT22;4248;48.196;10.924;2023-06-10T12:42:58;26.40;6.20
8422;DHT22;4248;48.196;10.924;2023-06-10T12:45:34;26.50;5.80
8422;DHT22;4248;48.196;10.924;2023-06-10T12:50:37;26.20;5.70
8422;DHT22;4248;48.196;10.924;2023-06-10T12:53:03;26.10;5.70
8422;DHT22;4248;48.196;10.924;2023-06-10T12:55:29;25.80;5.80
8422;DHT22;4248;48.196;10.924;2023-06-10T12:57:56;25.60;6.50
8422;DHT22;4248;48.196;10.924;2023-06-10T13:00:22;26.10;6.00
8422;DHT22;4248;48.196;10.924;2023-06-10T13:02:51;26.30;4.80
8422;DHT22;4248;48.196;10.924;2023-06-10T13:05:18;26.30;4.90
8422;DHT22;4248;48.196;10.924;2023-06-10T13:07:45;26.30;5.10
8422;DHT22;4248;48.196;10.924;2023-06-10T13:10:12;26.40;5.80
8422;DHT22;4248;48.196;10.924;2023-06-10T13:12:39;26.20;7.10
8422;DHT22;4248;48.196;10.924;2023-06-10T13:15:05;25.90;8.50
8422;DHT22;4248;48.196;10.924;2023-06-10T13:17:31;25.90;8.50
8422;DHT22;4248;48.196;10.924;2023-06-10T13:19:57;25.70;8.90
8422;DHT22;4248;48.196;10.924;2023-06-10T13:22:22;25.50;9.40
8422;DHT22;4248;48.196;10.924;2023-06-10T13:24:49;25.70;9.60
8422;DHT22;4248;48.196;10.924;2023-06-10T13:27:15;25.70;9.10
8422;DHT22;4248;48.196;10.924;2023-06-10T13:29:40;25.50;9.10
8422;DHT22;4248;48.196;10.924;2023-06-10T13:32:07;25.80;9.00
8422;DHT22;4248;48.196;10.924;2023-06-10T13:34:33;25.70;9.10
8422;DHT22;4248;48.196;10.924;2023-06-10T13:36:58;25.70;9.10
8422;DHT22;4248;48.196;10.924;2023-06-10T13:39:24;25.80;9.00
8422;DHT22;4248;48.196;10.924;2023-06-10T13:41:50;25.90;9.00
8422;DHT22;4248;48.196;10.924;2023-06-10T13:44:17;25.70;9.20
8422;DHT22;4248;48.196;10.924;2023-06-10T13:46:43;25.70;9.10
8422;DHT22;4248;48.196;10.924;2023-06-10T13:49:08;25.70;9.50
8422;DHT22;4248;48.196;10.924;2023-06-10T13:51:34;25.50;9.70
8422;DHT22;4248;48.196;10.924;2023-06-10T13:54:00;25.40;10.10
8422;DHT22;4248;48.196;10.924;2023-06-10T13:56:26;25.50;9.90
8422;DHT22;4248;48.196;10.924;2023-06-10T13:58:52;25.80;9.70
8422;DHT22;4248;48.196;10.924;2023-06-10T14:01:17;25.80;9.40
8422;DHT22;4248;48.196;10.924;2023-06-10T14:03:43;25.50;8.90
8422;DHT22;4248;48.196;10.924;2023-06-10T14:06:09;25.70;8.80
8422;DHT22;4248;48.196;10.924;2023-06-10T14:08:35;25.80;8.70
8422;DHT22;4248;48.196;10.924;2023-06-10T14:11:01;25.70;8.30
8422;DHT22;4248;48.196;10.924;2023-06-10T14:13:26;25.60;8.10
8422;DHT22;4248;48.196;10.924;2023-06-10T14:15:52;25.60;8.50
8422;DHT22;4248;48.196;10.924;2023-06-10T14:18:18;25.70;8.60
8422;DHT22;4248;48.196;10.924;2023-06-10T14:20:43;25.80;8.60
8422;DHT22;4248;48.196;10.924;2023-06-10T14:23:09;25.60;9.00
8422;DHT22;4248;48.196;10.924;2023-06-10T14:25:35;25.60;9.30
8422;DHT22;4248;48.196;10.924;2023-06-10T14:28:00;25.60;9.60
8422;DHT22;4248;48.196;10.924;2023-06-10T14:30:26;25.60;9.40
8422;DHT22;4248;48.196;10.924;2023-06-10T14:32:51;25.80;8.90
8422;DHT22;4248;48.196;10.924;2023-06-10T14:35:17;26.00;8.40
8422;DHT22;4248;48.196;10.924;2023-06-10T14:37:43;26.10;8.10
8422;DHT22;4248;48.196;10.924;2023-06-10T14:40:09;26.20;7.90
8422;DHT22;4248;48.196;10.924;2023-06-10T14:42:35;26.10;7.70
8422;DHT22;4248;48.196;10.924;2023-06-10T14:45:00;25.80;7.70
8422;DHT22;4248;48.196;10.924;2023-06-10T14:47:26;25.40;8.30
8422;DHT22;4248;48.196;10.924;2023-06-10T14:49:52;25.50;8.50
8422;DHT22;4248;48.196;10.924;2023-06-10T14:52:17;25.80;8.10
8422;DHT22;4248;48.196;10.924;2023-06-10T14:54:43;25.90;7.90
8422;DHT22;4248;48.196;10.924;2023-06-10T14:57:08;25.90;7.80
8422;DHT22;4248;48.196;10.924;2023-06-10T14:59:35;25.90;7.60
8422;DHT22;4248;48.196;10.924;2023-06-10T15:02:01;25.90;7.30
8422;DHT22;4248;48.196;10.924;2023-06-10T15:04:27;26.00;7.10
8422;DHT22;4248;48.196;10.924;2023-06-10T15:06:53;26.10;6.90
8422;DHT22;4248;48.196;10.924;2023-06-10T15:09:19;26.30;6.50
8422;DHT22;4248;48.196;10.924;2023-06-10T15:11:45;26.40;6.50
8422;DHT22;4248;48.196;10.924;2023-06-10T15:14:11;26.30;6.60
8422;DHT22;4248;48.196;10.924;2023-06-10T15:16:40;26.40;6.70
8422;DHT22;4248;48.196;10.924;2023-06-10T15:19:10;26.50;6.80
8422;DHT22;4248;48.196;10.924;2023-06-10T15:21:35;26.70;6.90
8422;DHT22;4248;48.196;10.924;2023-06-10T15:24:02;26.60;6.60
8422;DHT22;4248;48.196;10.924;2023-06-10T15:26:27;26.40;7.10
8422;DHT22;4248;48.196;10.924;2023-06-10T15:28:53;26.30;7.40
8422;DHT22;4248;48.196;10.924;2023-06-10T15:31:19;26.30;7.40
8422;DHT22;4248;48.196;10.924;2023-06-10T15:33:44;26.20;7.20
8422;DHT22;4248;48.196;10.924;2023-06-10T15:36:10;26.20;7.30
8422;DHT22;4248;48.196;10.924;2023-06-10T15:38:36;26.10;7.50
8422;DHT22;4248;48.196;10.924;2023-06-10T15:41:02;26.20;7.40
8422;DHT22;4248;48.196;10.924;2023-06-10T15:43:27;26.00;7.00
8422;DHT22;4248;48.196;10.924;2023-06-10T15:45:53;26.00;7.00
8422;DHT22;4248;48.196;10.924;2023-06-10T15:48:19;25.60;6.90
8422;DHT22;4248;48.196;10.924;2023-06-10T15:50:44;25.50;6.90
8422;DHT22;4248;48.196;10.924;2023-06-10T15:53:10;25.50;6.90
8422;DHT22;4248;48.196;10.924;2023-06-10T15:55:36;25.40;6.70
8422;DHT22;4248;48.196;10.924;2023-06-10T15:58:01;25.20;6.80
8422;DHT22;4248;48.196;10.924;2023-06-10T16:00:29;25.00;7.20